| time (UTC) | temp C | wind direction | speed KPH | gust KPH | rain 1hr cm | rain 24hr cm | rain mn cm | humidity % | barometer mb |
| 20260510204705 | 19 | 332 | 4.8 | 19.3 | 0.00 | 0.94 | 0.94 | 83 | 1016.4 |
| 20260510203706 | 19 | 48 | 4.8 | 16.1 | 0.00 | 0.94 | 0.94 | 82 | 1016.7 |
| 20260510202728 | 20 | 40 | 4.8 | 16.1 | 0.00 | 0.91 | 0.91 | 82 | 1016.7 |
| 20260510195507 | 20 | 31 | 4.8 | 14.5 | 0.00 | 0.91 | 0.91 | 79 | 1015.9 |
| 20260510193318 | 20 | 31 | 1.6 | 17.7 | 0.00 | 0.91 | 0.91 | 79 | 1016.1 |
| 20260510192245 | 21 | 39 | 4.8 | 17.7 | 0.00 | 0.91 | 0.91 | 78 | 1015.9 |
| 20260510191221 | 21 | 11 | 3.2 | 9.7 | 0.00 | 0.91 | 0.91 | 77 | 1016.1 |
| 20260510185146 | 21 | 15 | 3.2 | 11.3 | 0.00 | 0.91 | 0.91 | 74 | 1015.5 |
| 20260510184140 | 21 | 67 | 1.6 | 11.3 | 0.00 | 0.91 | 0.91 | 74 | 1015.2 |
| 20260510183154 | 21 | 140 | 1.6 | 8.0 | 0.00 | 0.91 | 0.91 | 75 | 1015.0 |
| 20260510182149 | 22 | 121 | 1.6 | 11.3 | 0.00 | 0.91 | 0.91 | 76 | 1014.8 |
| 20260510181119 | 21 | 17 | 1.6 | 9.7 | 0.00 | 0.91 | 0.91 | 79 | 1014.7 |
| 20260510180118 | 21 | 148 | 4.8 | 11.3 | 0.00 | 0.91 | 0.91 | 81 | 1014.6 |
| 20260510175112 | 20 | 161 | 3.2 | 14.5 | 0.00 | 0.91 | 0.91 | 85 | 1014.7 |
| 20260510174036 | 20 | 15 | 4.8 | 17.7 | 0.00 | 0.91 | 0.91 | 86 | 1014.8 |
| 20260510173020 | 19 | 71 | 3.2 | 12.9 | 0.00 | 0.91 | 0.91 | 87 | 1014.9 |
| 20260510172020 | 19 | 0 | 1.6 | 17.7 | 0.00 | 0.91 | 0.91 | 88 | 1014.9 |
| 20260510171034 | 18 | 36 | 3.2 | 17.7 | 0.10 | 0.91 | 0.91 | 86 | 1015.0 |
| 20260510170015 | 18 | 44 | 3.2 | 12.9 | 0.25 | 0.91 | 0.91 | 86 | 1015.3 |
| 20260510164949 | 17 | 82 | 4.8 | 16.1 | 0.20 | 0.84 | 0.89 | 85 | 1015.3 |
| 20260510164009 | 17 | 15 | 6.4 | 30.6 | 2.18 | 0.74 | 0.81 | 83 | 1015.8 |
| 20260510163029 | 18 | 34 | 12.9 | 32.2 | 12.73 | 0.05 | 0.18 | 79 | 1015.2 |
| 20260510162007 | 20 | 338 | 12.9 | 32.2 | 0.00 | 0.05 | 0.05 | 72 | 1015.8 |
| 20260510154709 | 25 | 239 | 3.2 | 14.5 | 0.00 | 0.05 | 0.05 | 63 | 1013.0 |
| 20260510153710 | 25 | 217 | 4.8 | 16.1 | 0.00 | 0.05 | 0.05 | 63 | 1012.2 |
| 20260510152713 | 25 | 126 | 6.4 | 19.3 | 0.00 | 0.05 | 0.05 | 62 | 1011.4 |
| 20260510151707 | 24 | 159 | 4.8 | 19.3 | 0.00 | 0.03 | 0.03 | 62 | 1011.3 |
| 20260510150727 | 23 | 153 | 4.8 | 12.9 | 0.00 | 0.03 | 0.03 | 63 | 1011.5 |
| 20260510145716 | 23 | 180 | 4.8 | 19.3 | 0.00 | 0.03 | 0.03 | 65 | 1011.4 |
| 20260510144727 | 22 | 140 | 3.2 | 19.3 | 0.00 | 0.03 | 0.03 | 67 | 1011.6 |
| 20260510143727 | 22 | 161 | 4.8 | 16.1 | 0.00 | 0.03 | 0.03 | 68 | 1011.6 |
| 20260510142721 | 22 | 132 | 3.2 | 16.1 | 0.00 | 0.03 | 0.03 | 67 | 1011.8 |
| 20260510141744 | 22 | 188 | 3.2 | 11.3 | 0.00 | 0.03 | 0.03 | 69 | 1011.9 |
| 20260510140804 | 22 | 199 | 3.2 | 16.1 | 0.00 | 0.03 | 0.03 | 70 | 1012.1 |
| 20260510135757 | 21 | 143 | 4.8 | 16.1 | 0.00 | 0.03 | 0.03 | 71 | 1012.3 |
| 20260510134740 | 21 | 132 | 3.2 | 11.3 | 0.00 | 0.03 | 0.03 | 73 | 1012.4 |
| 20260510132607 | 20 | 130 | 1.6 | 9.7 | 0.00 | 0.03 | 0.03 | 75 | 1012.6 |
| 20260510130414 | 20 | 149 | 0.0 | 8.0 | 0.00 | 0.03 | 0.03 | 76 | 1012.9 |
| 20260510125346 | 20 | 136 | 1.6 | 6.4 | 0.00 | 0.03 | 0.03 | 77 | 1012.5 |
| 20260510124334 | 20 | 142 | 1.6 | 9.7 | 0.00 | 0.03 | 0.03 | 77 | 1012.5 |
| 20260510123337 | 20 | 128 | 1.6 | 14.5 | 0.00 | 0.03 | 0.03 | 77 | 1012.3 |
| 20260510122306 | 20 | 132 | 1.6 | 14.5 | 0.00 | 0.03 | 0.03 | 77 | 1012.1 |
| 20260510121226 | 19 | 128 | 0.0 | 4.8 | 0.00 | 0.03 | 0.03 | 78 | 1012.1 |
| 20260510120155 | 19 | 201 | 0.0 | 6.4 | 0.00 | 0.03 | 0.03 | 78 | 1012.1 |
| 20260510115136 | 19 | 129 | 1.6 | 6.4 | 0.00 | 0.03 | 0.03 | 78 | 1011.9 |
| 20260510114138 | 19 | 126 | 1.6 | 6.4 | 0.00 | 0.03 | 0.03 | 78 | 1011.7 |
| 20260510113152 | 19 | 129 | 0.0 | 8.0 | 0.00 | 0.03 | 0.03 | 77 | 1011.5 |
| 20260510112139 | 19 | 120 | 1.6 | 8.0 | 0.00 | 0.03 | 0.03 | 78 | 1011.6 |
| 20260510110000 | 19 | 155 | 0.0 | 6.4 | 0.00 | 0.03 | 0.03 | 79 | 1011.6 |
| 20260510104931 | 18 | 34 | 0.0 | 6.4 | 0.00 | 0.03 | 0.03 | 79 | 1011.6 |
| 20260510103902 | 18 | 0 | 0.0 | 11.3 | 0.00 | 0.03 | 0.03 | 79 | 1011.6 |
| 20260510102828 | 18 | 130 | 1.6 | 14.5 | 0.00 | 0.03 | 0.03 | 79 | 1011.4 |
| 20260510100656 | 18 | 112 | 1.6 | 12.9 | 0.00 | 0.03 | 0.03 | 81 | 1011.3 |
| 20260510095627 | 18 | 90 | 1.6 | 12.9 | 0.00 | 0.03 | 0.03 | 82 | 1011.4 |
| 20260510094616 | 18 | 44 | 1.6 | 11.3 | 0.00 | 0.03 | 0.03 | 82 | 1011.4 |
| 20260510093616 | 18 | 49 | 4.8 | 14.5 | 0.00 | 0.03 | 0.03 | 82 | 1011.5 |
| 20260510092539 | 19 | 36 | 1.6 | 12.9 | 0.00 | 0.03 | 0.03 | 80 | 1011.3 |
| 20260510091505 | 20 | 15 | 3.2 | 16.1 | 0.00 | 0.03 | 0.03 | 77 | 1011.1 |
| 20260510090524 | 21 | 42 | 3.2 | 22.5 | 0.00 | 0.03 | 0.03 | 75 | 1010.4 |
| 20260510085540 | 22 | 342 | 4.8 | 22.5 | 0.00 | 0.00 | 0.00 | 73 | 1010.3 |
| 20260510083403 | 22 | 67 | 4.8 | 16.1 | 0.00 | 0.00 | 0.00 | 71 | 1010.4 |
| 20260510082344 | 23 | 347 | 4.8 | 16.1 | 0.00 | 0.00 | 0.00 | 75 | 1010.2 |
| 20260510081355 | 23 | 41 | 1.6 | 12.9 | 0.00 | 0.00 | 0.00 | 77 | 1010.3 |
| 20260510075247 | 23 | 342 | 3.2 | 16.1 | 0.00 | 0.00 | 0.00 | 78 | 1010.5 |
| 20260510073108 | 23 | 111 | 0.0 | 0.0 | 0.00 | 0.00 | 0.00 | 76 | 1008.8 |
| 20260510070940 | 24 | 123 | 0.0 | 0.0 | 0.00 | 0.00 | 0.00 | 73 | 1008.4 |
| 20260510065954 | 24 | 123 | 0.0 | 4.8 | 0.00 | 0.00 | 0.00 | 72 | 1008.1 |
| 20260510065003 | 24 | 111 | 0.0 | 4.8 | 0.00 | 0.00 | 0.00 | 71 | 1008.2 |
| 20260510064009 | 24 | 105 | 1.6 | 4.8 | 0.00 | 0.00 | 0.00 | 70 | 1007.9 |
| 20260510063028 | 25 | 190 | 1.6 | 11.3 | 0.00 | 0.00 | 0.00 | 69 | 1007.7 |
| 20260510061958 | 25 | 173 | 4.8 | 22.5 | 0.00 | 0.00 | 0.00 | 68 | 1008.0 |
| 20260510055913 | 24 | 113 | 6.4 | 19.3 | 0.00 | 0.00 | 0.00 | 69 | 1010.4 |
| 20260510054850 | 24 | 42 | 6.4 | 19.3 | 0.00 | 0.00 | 0.00 | 69 | 1010.3 |
| 20260510053824 | 24 | 355 | 4.8 | 14.5 | 0.00 | 0.00 | 0.00 | 67 | 1009.8 |
| 20260510052830 | 24 | 51 | 0.0 | 6.4 | 0.00 | 0.00 | 0.00 | 68 | 1007.8 |
| 20260510051817 | 24 | 238 | 0.0 | 6.4 | 0.00 | 0.00 | 0.00 | 67 | 1007.0 |
| 20260510050825 | 24 | 119 | 0.0 | 0.0 | 0.00 | 0.00 | 0.00 | 66 | 1006.9 |
| 20260510044656 | 25 | 150 | 0.0 | 6.4 | 0.00 | 0.00 | 0.00 | 65 | 1006.8 |
| 20260510043641 | 25 | 64 | 1.6 | 9.7 | 0.00 | 0.00 | 0.00 | 65 | 1006.5 |
| 20260510042621 | 25 | 86 | 0.0 | 9.7 | 0.00 | 0.00 | 0.00 | 65 | 1006.3 |
| 20260510041625 | 25 | 119 | 0.0 | 6.4 | 0.00 | 0.00 | 0.00 | 65 | 1006.4 |
| 20260510040626 | 25 | 146 | 1.6 | 6.4 | 0.00 | 0.00 | 0.00 | 65 | 1006.6 |
| 20260510035636 | 25 | 157 | 0.0 | 4.8 | 0.00 | 0.00 | 0.00 | 65 | 1006.6 |
| 20260510034630 | 25 | 182 | 0.0 | 6.4 | 0.00 | 0.00 | 0.00 | 65 | 1006.9 |
| 20260510032440 | 24 | 136 | 0.0 | 3.2 | 0.00 | 0.00 | 0.00 | 66 | 1006.9 |
| 20260510031452 | 24 | 106 | 0.0 | 3.2 | 0.00 | 0.00 | 0.00 | 65 | 1006.8 |
| 20260510030417 | 25 | 105 | 0.0 | 0.0 | 0.00 | 0.00 | 0.00 | 64 | 1007.1 |
| 20260510025426 | 25 | 105 | 0.0 | 3.2 | 0.00 | 0.00 | 0.00 | 63 | 1007.1 |
| 20260510024432 | 25 | 103 | 0.0 | 0.0 | 0.00 | 0.00 | 0.00 | 62 | 1006.9 |
| 20260510023408 | 25 | 78 | 0.0 | 0.0 | 0.00 | 0.00 | 0.00 | 61 | 1007.1 |
| 20260510022352 | 25 | 78 | 0.0 | 1.6 | 0.00 | 0.00 | 0.00 | 60 | 1006.9 |
| 20260510021413 | 26 | 78 | 0.0 | 1.6 | 0.00 | 0.00 | 0.00 | 60 | 1006.8 |
| 20260510020413 | 26 | 74 | 0.0 | 3.2 | 0.00 | 0.00 | 0.00 | 59 | 1006.7 |
| 20260510015344 | 26 | 70 | 0.0 | 3.2 | 0.00 | 0.00 | 0.00 | 58 | 1006.6 |
| 20260510014345 | 27 | 95 | 0.0 | 4.8 | 0.00 | 0.00 | 0.00 | 58 | 1006.4 |
| 20260510012233 | 27 | 136 | 0.0 | 9.7 | 0.00 | 0.00 | 0.00 | 57 | 1006.2 |
| 20260510010103 | 28 | 144 | 1.6 | 4.8 | 0.00 | 0.00 | 0.00 | 57 | 1005.8 |
| 20260510005107 | 28 | 92 | 1.6 | 11.3 | 0.00 | 0.00 | 0.00 | 57 | 1005.8 |
| 20260510004032 | 28 | 157 | 3.2 | 11.3 | 0.00 | 0.00 | 0.00 | 57 | 1005.7 |
| 20260510003018 | 29 | 126 | 1.6 | 11.3 | 0.00 | 0.00 | 0.00 | 56 | 1005.8 |
| 20260509235734 | 31 | 169 | 1.6 | 8.0 | 0.00 | 0.00 | 0.00 | 50 | 1005.7 |
| 20260509233551 | 31 | 120 | 0.0 | 6.4 | 0.00 | 0.00 | 0.00 | 46 | 1005.9 |
| 20260509232556 | 31 | 153 | 1.6 | 8.0 | 0.00 | 0.00 | 0.00 | 44 | 1005.9 |
| 20260509231542 | 32 | 142 | 0.0 | 6.4 | 0.00 | 0.00 | 0.00 | 42 | 1006.0 |
| 20260509230544 | 31 | 146 | 1.6 | 3.2 | 0.00 | 0.00 | 0.00 | 42 | 1005.9 |
| 20260509225606 | 31 | 190 | 1.6 | 8.0 | 0.00 | 0.00 | 0.00 | 41 | 1006.0 |
| 20260509223456 | 31 | 27 | 1.6 | 9.7 | 0.00 | 0.00 | 0.00 | 42 | 1006.0 |
| 20260509222453 | 31 | 180 | 1.6 | 6.4 | 0.00 | 0.00 | 0.00 | 45 | 1006.0 |
| 20260509221435 | 32 | 101 | 1.6 | 6.4 | 0.00 | 0.00 | 0.00 | 42 | 1005.9 |
| 20260509220453 | 32 | 116 | 0.0 | 4.8 | 0.00 | 0.00 | 0.00 | 40 | 1005.9 |
| 20260509215421 | 32 | 147 | 0.0 | 9.7 | 0.00 | 0.00 | 0.00 | 41 | 1005.9 |
| 20260509214435 | 31 | 114 | 1.6 | 9.7 | 0.00 | 0.00 | 0.00 | 45 | 1006.1 |
| 20260509213426 | 31 | 220 | 3.2 | 8.0 | 0.00 | 0.00 | 0.00 | 40 | 1006.1 |
| 20260509210051 | 31 | 0 | 3.2 | 9.7 | 0.00 | 0.00 | 0.00 | 46 | 1006.6 |